createdAt,value
2017-07-10T15:13:20.391Z,4592
2017-07-10T15:14:21.064Z,4424
2017-07-10T15:15:21.062Z,4468
2017-07-10T15:16:21.070Z,4760
2017-07-10T15:17:20.749Z,5120
2017-07-10T15:18:21.125Z,5452
2017-07-10T15:19:20.439Z,5708
2017-07-10T15:20:21.676Z,5576
2017-07-10T15:21:21.082Z,5304
2017-07-10T15:22:21.079Z,5048
2017-07-10T15:23:20.129Z,4708
2017-07-10T15:24:21.122Z,4244
2017-07-10T15:25:21.762Z,3696
2017-07-10T15:26:20.790Z,3116
2017-07-10T15:27:20.468Z,2764
2017-07-10T15:28:20.851Z,2504
2017-07-10T15:29:20.811Z,2288
2017-07-10T15:30:20.440Z,2184
2017-07-10T15:31:20.819Z,2076
2017-07-10T15:32:20.818Z,2020
2017-07-10T15:33:21.147Z,1968
2017-07-10T15:34:20.917Z,1944
2017-07-10T15:35:21.060Z,1940
2017-07-10T15:36:21.177Z,1976
2017-07-10T15:37:20.861Z,2076
2017-07-10T15:38:21.178Z,2208
2017-07-10T15:39:20.547Z,2420
2017-07-10T15:40:20.527Z,2660
2017-07-10T15:41:20.243Z,2936
2017-07-10T15:42:20.563Z,3204
2017-07-10T15:43:20.608Z,3364
2017-07-10T15:44:20.889Z,3392
2017-07-10T15:45:21.466Z,3276
2017-07-10T15:46:20.911Z,3096
2017-07-10T15:47:20.589Z,2876
2017-07-10T15:48:20.597Z,2652
2017-07-10T15:49:21.238Z,2448
2017-07-10T15:50:20.818Z,2308
2017-07-10T15:51:20.595Z,2152
2017-07-10T15:52:20.614Z,2032
2017-07-10T15:53:20.942Z,1932
2017-07-10T15:54:20.675Z,1884
2017-07-10T15:55:21.779Z,1872
2017-07-10T15:56:20.947Z,1892
2017-07-10T15:57:20.643Z,1916
2017-07-10T15:58:21.218Z,1960
2017-07-10T15:59:20.644Z,2048
2017-07-10T16:00:21.296Z,2164
2017-07-10T16:01:21.293Z,2276
2017-07-10T16:02:20.665Z,2384
2017-07-10T16:03:20.985Z,2480
2017-07-10T16:04:20.731Z,2584
2017-07-10T16:05:21.603Z,2736
2017-07-10T16:06:21.320Z,2928
2017-07-10T16:07:20.677Z,3128
2017-07-10T16:08:21.007Z,3292
2017-07-10T16:09:20.714Z,3404
2017-07-10T16:10:20.934Z,3468
2017-07-10T16:11:21.017Z,3512
2017-07-10T16:12:20.382Z,3524
2017-07-10T16:13:21.813Z,3540
2017-07-10T16:14:21.050Z,3568
2017-07-10T16:15:21.201Z,3612
2017-07-10T16:16:20.401Z,3696
2017-07-10T16:17:21.053Z,3844
2017-07-10T16:18:21.054Z,4040
2017-07-10T16:19:20.738Z,4292
2017-07-10T16:20:21.324Z,5284
2017-07-10T16:21:21.385Z,5408
2017-07-10T16:22:20.436Z,5636
2017-07-10T16:23:20.771Z,6424
2017-07-10T16:24:20.770Z,7080
2017-07-10T16:25:21.917Z,7768
2017-07-10T16:26:21.094Z,7992
2017-07-10T16:27:21.456Z,8564
2017-07-10T16:28:21.527Z,8248
2017-07-10T16:29:20.800Z,8804
2017-07-10T16:30:21.722Z,8772
2017-07-10T16:31:21.146Z,8692
2017-07-10T16:32:21.461Z,8564
2017-07-10T16:33:21.451Z,8360
2017-07-10T16:34:21.160Z,8132
2017-07-10T16:35:21.666Z,7064
2017-07-10T16:36:20.828Z,7340
2017-07-10T16:37:20.832Z,6656
2017-07-10T16:38:21.486Z,6872
2017-07-10T16:39:21.503Z,6352
2017-07-10T16:40:21.116Z,6272
2017-07-10T16:41:20.864Z,6112
2017-07-10T16:42:20.542Z,5680
2017-07-10T16:43:22.865Z,5564
2017-07-10T16:44:20.551Z,5804
2017-07-10T16:45:21.690Z,5736
2017-07-10T16:46:21.204Z,5460
2017-07-10T16:47:21.211Z,5288
2017-07-10T16:48:21.537Z,5012
2017-07-10T16:49:21.244Z,4812
2017-07-10T16:50:21.610Z,4600
2017-07-10T16:51:21.236Z,4440
2017-07-10T16:52:21.249Z,4296
2017-07-10T16:53:21.242Z,4212
2017-07-10T16:54:21.273Z,4068
2017-07-10T16:55:21.450Z,3788
2017-07-10T16:56:21.594Z,3596
2017-07-10T16:57:21.274Z,3500
2017-07-10T16:58:21.053Z,3516
2017-07-10T16:59:20.992Z,3564
2017-07-10T17:00:21.575Z,3800
2017-07-10T17:01:21.285Z,4160
2017-07-10T17:02:20.652Z,4284
2017-07-10T17:03:21.306Z,4404
2017-07-10T17:04:21.317Z,4700
2017-07-10T17:05:21.026Z,5088
2017-07-10T17:06:21.321Z,5452
2017-07-10T17:07:21.320Z,5680
2017-07-10T17:08:21.320Z,5880
2017-07-10T17:09:21.343Z,6088
2017-07-10T17:10:21.852Z,6232
2017-07-10T17:11:21.024Z,6388
2017-07-10T17:12:21.471Z,6496
2017-07-10T17:13:23.721Z,6496
2017-07-10T17:14:21.354Z,6508
2017-07-10T17:15:21.717Z,6576
2017-07-10T17:16:21.401Z,6676
2017-07-10T17:17:21.378Z,6616
2017-07-10T17:18:21.064Z,6396
2017-07-10T17:19:21.397Z,6180
2017-07-10T17:20:21.735Z,5948
2017-07-10T17:21:21.715Z,5736
2017-07-10T17:22:21.087Z,5572
2017-07-10T17:23:20.756Z,5404
2017-07-10T17:24:21.413Z,5196
2017-07-10T17:25:22.020Z,4968
2017-07-10T17:26:21.098Z,4760
2017-07-10T17:27:21.110Z,4528
2017-07-10T17:28:21.158Z,4252
2017-07-10T17:29:21.446Z,4052
2017-07-10T17:30:22.073Z,3996
2017-07-10T17:31:21.467Z,4016
2017-07-10T17:32:47.245Z,4084
2017-07-10T17:33:21.130Z,4056
2017-07-10T17:34:21.473Z,3976
2017-07-10T17:35:21.123Z,3764
2017-07-10T17:36:21.463Z,3648
2017-07-10T17:37:21.784Z,3776
2017-07-10T17:38:21.162Z,3940
2017-07-10T17:39:21.807Z,4072
2017-07-10T17:40:21.776Z,3928
2017-07-10T17:41:21.504Z,3852
2017-07-10T17:42:21.811Z,3804
2017-07-10T17:43:22.562Z,3628
2017-07-10T17:44:21.518Z,3512
2017-07-10T17:45:22.309Z,3460
2017-07-10T17:46:21.201Z,3480
2017-07-10T17:47:21.671Z,3432
2017-07-10T17:48:21.538Z,3352
2017-07-10T17:49:21.855Z,3300
2017-07-10T17:50:22.737Z,3204
2017-07-10T17:51:21.870Z,3148
2017-07-10T17:52:21.229Z,3120
2017-07-10T17:53:21.872Z,3068
2017-07-10T17:54:21.273Z,3072
2017-07-10T17:55:22.477Z,3080
2017-07-10T17:56:20.927Z,3108
2017-07-10T17:57:21.569Z,3164
2017-07-10T17:58:21.577Z,3300
2017-07-10T17:59:21.275Z,3600
2017-07-10T18:00:21.958Z,3960
2017-07-10T18:01:21.585Z,4364
2017-07-10T18:02:21.909Z,4476
2017-07-10T18:03:21.607Z,4424
2017-07-10T18:04:21.923Z,4364
2017-07-10T18:05:21.755Z,4156
2017-07-10T18:06:21.301Z,3928
2017-07-10T18:07:21.960Z,3760
2017-07-10T18:08:21.625Z,3788
2017-07-10T18:09:21.942Z,3724
2017-07-10T18:10:22.374Z,3524
2017-07-10T18:11:21.390Z,3356
2017-07-10T18:12:21.802Z,3312
2017-07-10T18:13:22.027Z,3304
2017-07-10T18:14:21.979Z,3368
2017-07-10T18:15:22.823Z,3556
2017-07-10T18:16:21.746Z,3560
2017-07-10T18:17:22.099Z,3524
2017-07-10T18:18:21.134Z,3484
2017-07-10T18:19:22.915Z,3544
2017-07-10T18:20:22.061Z,3440
2017-07-10T18:21:21.787Z,3348
2017-07-10T18:22:21.408Z,3248
2017-07-10T18:23:21.391Z,3112
2017-07-10T18:24:21.770Z,2980
2017-07-10T18:25:22.070Z,2844
2017-07-10T18:26:21.421Z,2700
2017-07-10T18:27:21.936Z,2584
2017-07-10T18:28:21.588Z,2484
2017-07-10T18:29:22.176Z,2388
2017-07-10T18:30:21.724Z,2288
2017-07-10T18:31:21.414Z,2204
2017-07-10T18:32:21.745Z,2116
2017-07-10T18:33:21.744Z,2016
2017-07-10T18:34:21.437Z,1924
2017-07-10T18:35:22.035Z,1832
2017-07-10T18:36:22.111Z,1756
2017-07-10T18:37:21.753Z,1680
2017-07-10T18:38:21.117Z,1616
2017-07-10T18:39:21.465Z,1544
2017-07-10T18:40:22.364Z,1496
2017-07-10T18:41:21.481Z,1476
2017-07-10T18:42:21.167Z,1472
2017-07-10T18:43:21.818Z,1460
2017-07-10T18:44:22.588Z,1436
2017-07-10T18:45:21.600Z,1408
2017-07-10T18:46:21.495Z,1372
2017-07-10T18:47:22.651Z,1332
2017-07-10T18:48:22.695Z,1276
2017-07-10T18:49:22.042Z,1224
2017-07-10T18:50:21.980Z,1172
2017-07-10T18:51:22.654Z,1120
2017-07-10T18:52:21.269Z,1064
2017-07-10T18:53:21.874Z,1004
2017-07-10T18:54:21.686Z,948
2017-07-10T18:55:22.227Z,892
2017-07-10T18:56:21.620Z,844
2017-07-10T18:57:21.894Z,796
2017-07-10T18:58:21.883Z,744
2017-07-10T18:59:22.544Z,692
2017-07-10T19:00:22.385Z,640
2017-07-10T19:01:21.985Z,588
2017-07-10T19:02:21.607Z,548
2017-07-10T19:03:21.898Z,504
2017-07-10T19:04:21.573Z,472
2017-07-10T19:05:22.133Z,440
2017-07-10T19:06:21.887Z,412
2017-07-10T19:07:22.007Z,384
2017-07-10T19:08:21.893Z,364
2017-07-10T19:09:21.597Z,336
2017-07-10T19:10:21.985Z,312
2017-07-10T19:11:21.584Z,288
2017-07-10T19:12:21.341Z,268
2017-07-10T19:13:21.265Z,248
2017-07-10T19:14:23.838Z,224
2017-07-10T19:15:22.190Z,208
2017-07-10T19:16:21.598Z,188
2017-07-10T19:17:21.298Z,172
2017-07-10T19:18:21.609Z,160
2017-07-10T19:19:22.260Z,148
2017-07-10T19:20:22.578Z,140
2017-07-10T19:21:21.939Z,132
2017-07-10T19:22:21.656Z,124
2017-07-10T19:23:21.339Z,112
2017-07-10T19:24:21.356Z,104
2017-07-10T19:25:22.435Z,100
2017-07-10T19:26:21.647Z,96
2017-07-10T19:27:21.982Z,88
2017-07-10T19:28:21.658Z,84
2017-07-10T19:29:21.994Z,72
2017-07-10T19:30:22.156Z,68
2017-07-10T19:31:21.662Z,60
2017-07-10T19:32:21.345Z,56
2017-07-10T19:33:21.668Z,48
2017-07-10T19:34:22.006Z,44
2017-07-10T19:35:21.660Z,40
2017-07-10T19:36:22.002Z,32
2017-07-10T19:37:21.367Z,32
2017-07-10T19:38:22.013Z,32
2017-07-10T19:39:22.364Z,24
2017-07-10T19:40:21.646Z,20
2017-07-10T19:41:22.039Z,20
2017-07-10T19:42:22.358Z,20
2017-07-10T19:43:21.714Z,16
2017-07-10T19:44:22.358Z,16
2017-07-10T19:45:23.987Z,12
2017-07-10T19:46:22.067Z,8
2017-07-10T19:47:22.054Z,8
2017-07-10T19:48:22.443Z,8
2017-07-10T19:49:21.741Z,8
2017-07-10T19:50:22.611Z,4
2017-07-10T19:51:21.759Z,8
2017-07-10T19:52:21.749Z,8
2017-07-10T19:53:22.081Z,4
2017-07-10T19:54:22.079Z,4
2017-07-10T19:55:22.229Z,4
2017-07-10T19:56:22.154Z,4
2017-07-10T19:57:21.482Z,4
2017-07-10T19:58:21.792Z,4
2017-07-10T19:59:22.109Z,0
2017-07-10T20:00:22.827Z,4
2017-07-10T20:01:21.800Z,4
2017-07-10T20:02:22.119Z,4
2017-07-10T20:03:21.894Z,4
2017-07-10T20:04:21.873Z,0
2017-07-10T20:05:22.438Z,0
2017-07-10T20:06:22.461Z,0
2017-07-10T20:07:22.153Z,0
2017-07-10T20:08:22.217Z,0
2017-07-10T20:09:22.164Z,0
2017-07-10T20:10:22.482Z,0
2017-07-10T20:11:22.160Z,0
2017-07-10T20:12:21.835Z,0
2017-07-10T20:13:22.186Z,0
2017-07-10T20:14:22.182Z,0
2017-07-10T20:15:25.089Z,0
2017-07-10T20:16:22.170Z,0
2017-07-10T20:17:22.185Z,0
2017-07-10T20:18:22.193Z,0
2017-07-10T20:19:21.560Z,0
2017-07-10T20:20:22.595Z,0
2017-07-10T20:21:22.517Z,0
2017-07-10T20:22:21.884Z,0
2017-07-10T20:23:21.873Z,0
2017-07-10T20:24:21.900Z,0
2017-07-10T20:25:22.401Z,0
2017-07-10T20:26:22.219Z,0
2017-07-10T20:27:21.893Z,0
2017-07-10T20:28:22.224Z,0
2017-07-10T20:29:22.269Z,0
2017-07-10T20:30:23.014Z,0
2017-07-10T20:31:21.930Z,0
2017-07-10T20:32:22.244Z,0
2017-07-10T20:33:22.245Z,0
2017-07-10T20:34:21.939Z,0
2017-07-10T20:35:21.869Z,0
2017-07-10T20:36:22.279Z,0
2017-07-10T20:37:21.958Z,0
2017-07-10T20:38:21.996Z,0
2017-07-10T20:39:22.598Z,0
2017-07-10T20:40:22.492Z,0
2017-07-10T20:41:22.288Z,0
2017-07-10T20:42:22.615Z,0
2017-07-10T20:43:22.276Z,0
2017-07-10T20:44:21.969Z,0
2017-07-10T20:45:22.978Z,0
2017-07-10T20:46:21.978Z,0
2017-07-10T20:47:22.051Z,0
2017-07-10T20:48:21.975Z,0
2017-07-10T20:49:22.647Z,0
2017-07-10T20:50:22.238Z,0
2017-07-10T20:51:22.311Z,0
2017-07-10T20:52:21.682Z,0
2017-07-10T20:53:21.685Z,0
2017-07-10T20:54:22.024Z,0
2017-07-10T20:55:22.427Z,0
2017-07-10T20:56:22.010Z,0
2017-07-10T20:57:23.351Z,0
2017-07-10T20:58:22.844Z,0
2017-07-10T20:59:23.742Z,0
2017-07-10T21:00:23.662Z,0
2017-07-10T21:01:24.461Z,0
2017-07-10T21:02:23.800Z,0
2017-07-10T21:03:23.816Z,0
2017-07-10T21:04:23.284Z,0
2017-07-10T21:05:23.729Z,0
2017-07-10T21:06:23.382Z,0
2017-07-10T21:07:22.914Z,0
2017-07-10T21:08:22.950Z,0
2017-07-10T21:09:23.348Z,0
2017-07-10T21:10:23.683Z,0
2017-07-10T21:11:23.998Z,0
2017-07-10T21:12:22.920Z,0
2017-07-10T21:13:23.077Z,0
2017-07-10T21:14:23.073Z,0
2017-07-10T21:15:22.547Z,0
2017-07-10T21:16:27.565Z,0
2017-07-10T21:17:23.754Z,0
2017-07-10T21:18:23.878Z,0
2017-07-10T21:19:23.441Z,0
2017-07-10T21:20:22.919Z,0
2017-07-10T21:21:22.555Z,0
2017-07-10T21:22:23.028Z,0
2017-07-10T21:23:23.754Z,0
2017-07-10T21:24:23.919Z,0
2017-07-10T21:25:23.848Z,0
2017-07-10T21:26:23.900Z,0
2017-07-10T21:27:23.427Z,0
2017-07-10T21:28:23.757Z,0
2017-07-10T21:29:23.950Z,0
2017-07-10T21:30:23.560Z,0
2017-07-10T21:31:23.838Z,0
2017-07-10T21:32:23.377Z,0
2017-07-10T21:33:23.601Z,0
2017-07-10T21:34:23.139Z,0
2017-07-10T21:35:23.190Z,0
2017-07-10T21:36:23.518Z,0
2017-07-10T21:37:23.566Z,0
2017-07-10T21:38:23.514Z,0
2017-07-10T21:39:22.676Z,0
2017-07-10T21:40:23.726Z,0
2017-07-10T21:41:23.799Z,0
2017-07-10T21:42:23.516Z,0
2017-07-10T21:43:23.073Z,0
2017-07-10T21:44:22.839Z,0
2017-07-10T21:45:23.118Z,0
2017-07-10T21:46:22.190Z,0
2017-07-10T21:47:27.062Z,0
2017-07-10T21:48:22.202Z,0
2017-07-10T21:49:22.520Z,0
2017-07-10T21:50:23.132Z,0
2017-07-10T21:51:22.862Z,0
2017-07-10T21:52:22.225Z,0
2017-07-10T21:53:22.539Z,0
2017-07-10T21:54:22.536Z,0
2017-07-10T21:55:23.022Z,0
2017-07-10T21:56:22.543Z,0
2017-07-10T21:57:22.544Z,0
2017-07-10T21:58:22.227Z,0
2017-07-10T21:59:22.226Z,0
